createdAt,value
2023-12-13T00:01:19.119Z,100212.03
2023-12-13T00:06:31.784Z,100221.59
2023-12-13T00:08:59.092Z,100212.75
2023-12-13T00:11:26.336Z,100208.97
2023-12-13T00:13:53.608Z,100210.41
2023-12-13T00:16:22.436Z,100225.72
2023-12-13T00:18:51.014Z,100219.34
2023-12-13T00:21:19.141Z,100205.78
2023-12-13T00:23:49.835Z,100222.00
2023-12-13T00:26:17.786Z,100221.28
2023-12-13T00:28:45.525Z,100222.72
2023-12-13T00:31:13.227Z,100218.78
2023-12-13T00:33:40.735Z,100224.25
2023-12-13T00:36:08.405Z,100225.72
2023-12-13T00:38:35.823Z,100211.69
2023-12-13T00:41:03.111Z,100223.44
2023-12-13T00:43:30.360Z,100229.66
2023-12-13T00:45:57.629Z,100220.94
2023-12-13T00:48:43.381Z,100231.44
2023-12-13T00:51:17.380Z,100230.72
2023-12-13T00:53:44.888Z,100225.03
2023-12-13T00:56:12.518Z,100230.22
2023-12-13T00:58:40.199Z,100232.16
2023-12-13T01:01:07.918Z,100231.81
2023-12-13T01:03:35.575Z,100229.66
2023-12-13T01:06:02.912Z,100228.44
2023-12-13T01:08:48.884Z,100234.47
2023-12-13T01:11:16.969Z,100238.25
2023-12-13T01:13:44.628Z,100233.94
2023-12-13T01:16:12.001Z,100216.69
2023-12-13T01:18:39.385Z,100220.41
2023-12-13T01:21:06.753Z,100213.09
2023-12-13T01:23:34.005Z,100222.19
2023-12-13T01:26:01.443Z,100216.31
2023-12-13T01:28:28.810Z,100217.56
2023-12-13T01:30:56.294Z,100215.09
2023-12-13T01:33:23.835Z,100215.97
2023-12-13T01:35:51.209Z,100208.66
2023-12-13T01:38:18.466Z,100214.72
2023-12-13T01:41:10.738Z,100224.34
2023-12-13T01:43:39.466Z,100222.41
2023-12-13T01:46:07.081Z,100223.44
2023-12-13T01:48:34.440Z,100223.47
2023-12-13T01:51:01.692Z,100227.72
2023-12-13T01:53:29.196Z,100241.06
2023-12-13T01:55:59.150Z,100223.78
2023-12-13T01:58:28.309Z,100222.75
2023-12-13T02:00:56.530Z,100218.13
2023-12-13T02:03:24.826Z,100224.19
2023-12-13T02:05:55.031Z,100223.84
2023-12-13T02:08:23.300Z,100213.19
2023-12-13T02:10:50.783Z,100206.72
2023-12-13T02:13:18.276Z,100219.53
2023-12-13T02:16:04.698Z,100224.50
2023-12-13T02:18:31.982Z,100236.25
2023-12-13T02:20:59.322Z,100230.56
2023-12-13T02:23:26.662Z,100233.63
2023-12-13T02:26:00.801Z,100244.69
2023-12-13T02:28:28.948Z,100247.69
2023-12-13T02:30:57.321Z,100228.84
2023-12-13T02:33:28.030Z,100229.72
2023-12-13T02:35:57.339Z,100219.38
2023-12-13T02:38:24.726Z,100235.75
2023-12-13T02:40:52.202Z,100230.06
2023-12-13T02:43:19.665Z,100228.47
2023-12-13T02:45:47.001Z,100232.91
2023-12-13T02:50:59.085Z,100240.94
2023-12-13T02:53:26.575Z,100253.06
2023-12-13T02:55:53.945Z,100244.84
2023-12-13T02:58:21.314Z,100242.50
2023-12-13T03:00:49.732Z,100248.06
2023-12-13T03:03:17.205Z,100253.22
2023-12-13T03:05:44.591Z,100268.28
2023-12-13T03:08:30.614Z,100250.84
2023-12-13T03:11:16.792Z,100252.25
2023-12-13T03:13:44.120Z,100252.94
2023-12-13T03:16:11.404Z,100257.94
2023-12-13T03:18:38.744Z,100254.03
2023-12-13T03:21:06.266Z,100251.56
2023-12-13T03:23:33.529Z,100247.97
2023-12-13T03:26:00.857Z,100251.91
2023-12-13T03:28:28.306Z,100258.66
2023-12-13T03:30:55.699Z,100265.91
2023-12-13T03:36:26.137Z,100260.72
2023-12-13T03:38:53.832Z,100253.06
2023-12-13T03:41:21.094Z,100267.13
2023-12-13T03:44:07.089Z,100253.97
2023-12-13T03:46:34.996Z,100257.50
2023-12-13T03:49:03.139Z,100253.78
2023-12-13T03:54:15.856Z,100260.34
2023-12-13T03:59:29.189Z,100256.38
2023-12-13T04:01:56.883Z,100250.53
2023-12-13T04:04:25.798Z,100249.84
2023-12-13T04:06:55.228Z,100260.13
2023-12-13T04:09:22.622Z,100253.75
2023-12-13T04:11:49.946Z,100261.72
2023-12-13T04:14:17.308Z,100255.31
2023-12-13T04:16:45.153Z,100261.06
2023-12-13T04:19:13.305Z,100252.50
2023-12-13T04:21:40.775Z,100260.78
2023-12-13T04:24:10.289Z,100258.16
2023-12-13T04:26:39.979Z,100259.56
2023-12-13T04:29:07.315Z,100259.41
2023-12-13T04:31:34.602Z,100257.13
2023-12-13T04:34:02.198Z,100247.66
2023-12-13T04:36:48.270Z,100256.41
2023-12-13T04:39:16.251Z,100263.88
2023-12-13T04:41:44.132Z,100277.72
2023-12-13T04:44:13.576Z,100272.28
2023-12-13T04:46:41.215Z,100275.56
2023-12-13T04:49:08.592Z,100269.38
2023-12-13T04:51:35.888Z,100278.31
2023-12-13T04:54:03.251Z,100285.16
2023-12-13T04:56:30.486Z,100281.06
2023-12-13T04:58:57.840Z,100285.19
2023-12-13T05:01:25.148Z,100271.06
2023-12-13T05:03:52.415Z,100271.56
2023-12-13T05:06:20.619Z,100287.88
2023-12-13T05:08:48.156Z,100297.47
2023-12-13T05:11:15.468Z,100274.94
2023-12-13T05:13:42.915Z,100276.28
2023-12-13T05:16:10.315Z,100277.56
2023-12-13T05:18:37.683Z,100283.19
2023-12-13T05:21:23.564Z,100283.19
2023-12-13T05:23:50.867Z,100285.94
2023-12-13T05:26:18.229Z,100298.13
2023-12-13T05:28:45.581Z,100285.41
2023-12-13T05:31:20.244Z,100290.09
2023-12-13T05:33:48.279Z,100300.31
2023-12-13T05:36:34.113Z,100307.44
2023-12-13T05:39:01.392Z,100294.81
2023-12-13T05:41:28.635Z,100303.66
2023-12-13T05:43:56.054Z,100293.59
2023-12-13T05:46:23.379Z,100292.53
2023-12-13T05:48:50.709Z,100296.66
2023-12-13T05:51:36.388Z,100295.47
2023-12-13T05:54:03.774Z,100297.72
2023-12-13T05:56:31.050Z,100311.34
2023-12-13T05:58:58.455Z,100315.25
2023-12-13T06:01:25.776Z,100317.91
2023-12-13T06:03:53.261Z,100303.78
2023-12-13T06:06:20.632Z,100336.97
2023-12-13T06:08:47.905Z,100305.78
2023-12-13T06:11:15.224Z,100317.84
2023-12-13T06:13:42.572Z,100315.19
2023-12-13T06:16:13.725Z,100312.19
2023-12-13T06:18:41.247Z,100315.00
2023-12-13T06:24:11.959Z,100307.56
2023-12-13T06:26:39.719Z,100311.56
2023-12-13T06:29:06.985Z,100310.16
2023-12-13T06:31:34.691Z,100313.78
2023-12-13T06:34:20.792Z,100325.44
2023-12-13T06:36:48.092Z,100320.28
2023-12-13T06:39:15.322Z,100317.16
2023-12-13T06:41:42.657Z,100308.91
2023-12-13T06:44:10.102Z,100302.47
2023-12-13T06:46:55.778Z,100315.41
2023-12-13T06:49:25.105Z,100319.31
2023-12-13T06:51:52.367Z,100334.25
2023-12-13T06:54:37.978Z,100311.25
2023-12-13T06:57:05.527Z,100319.91
2023-12-13T06:59:32.797Z,100320.69
2023-12-13T07:02:01.640Z,100323.09
2023-12-13T07:04:29.225Z,100324.09
2023-12-13T07:06:56.647Z,100319.03
2023-12-13T07:09:23.925Z,100331.47
2023-12-13T07:11:51.282Z,100353.19
2023-12-13T07:14:19.051Z,100356.09
2023-12-13T07:16:47.058Z,100356.34
2023-12-13T07:19:14.582Z,100332.25
2023-12-13T07:21:42.198Z,100336.09
2023-12-13T07:24:09.726Z,100347.47
2023-12-13T07:26:36.977Z,100340.28
2023-12-13T07:29:04.260Z,100334.31
2023-12-13T07:31:31.703Z,100344.97
2023-12-13T07:34:03.047Z,100334.13
2023-12-13T07:36:30.761Z,100344.84
2023-12-13T07:38:58.032Z,100344.19
2023-12-13T07:41:26.612Z,100337.22
2023-12-13T07:43:53.896Z,100336.97
2023-12-13T07:46:21.430Z,100344.19
2023-12-13T07:48:52.986Z,100362.47
2023-12-13T07:51:39.212Z,100348.44
2023-12-13T07:54:06.692Z,100341.44
2023-12-13T07:56:35.435Z,100339.53
2023-12-13T07:59:02.752Z,100341.00
2023-12-13T08:01:30.172Z,100351.13
2023-12-13T08:03:58.122Z,100352.44
2023-12-13T08:06:25.787Z,100351.50
2023-12-13T08:08:53.291Z,100338.94
2023-12-13T08:11:20.613Z,100326.38
2023-12-13T08:13:48.073Z,100332.81
2023-12-13T08:16:15.630Z,100347.47
2023-12-13T08:18:43.272Z,100333.66
2023-12-13T08:21:10.794Z,100332.22
2023-12-13T08:23:38.234Z,100335.91
2023-12-13T08:26:05.757Z,100333.47
2023-12-13T08:28:33.124Z,100331.31
2023-12-13T08:31:09.048Z,100339.41
2023-12-13T08:33:45.816Z,100333.44
2023-12-13T08:36:14.256Z,100340.59
2023-12-13T08:38:42.015Z,100336.38
2023-12-13T08:41:09.996Z,100342.13
2023-12-13T08:43:37.473Z,100332.91
2023-12-13T08:46:04.821Z,100342.13
2023-12-13T08:48:32.417Z,100346.78
2023-12-13T08:50:59.954Z,100325.88
2023-12-13T08:53:27.180Z,100331.41
2023-12-13T08:55:54.514Z,100329.25
2023-12-13T08:58:21.936Z,100331.84
2023-12-13T09:00:49.747Z,100327.16
2023-12-13T09:03:17.308Z,100327.56
2023-12-13T09:06:03.335Z,100323.84
2023-12-13T09:08:30.608Z,100326.69
2023-12-13T09:10:57.979Z,100328.50
2023-12-13T09:13:25.720Z,100361.28
2023-12-13T09:15:53.146Z,100331.72
2023-12-13T09:18:20.726Z,100328.94
2023-12-13T09:20:48.075Z,100319.09
2023-12-13T09:23:25.092Z,100329.09
2023-12-13T09:25:52.747Z,100325.94
2023-12-13T09:28:20.364Z,100327.56
2023-12-13T09:30:47.844Z,100324.25
2023-12-13T09:33:16.074Z,100336.28
2023-12-13T09:35:44.046Z,100327.94
2023-12-13T09:38:11.548Z,100319.81
2023-12-13T09:40:38.969Z,100340.94
2023-12-13T09:43:06.415Z,100347.19
2023-12-13T09:45:35.366Z,100329.09
2023-12-13T09:48:03.640Z,100338.28
2023-12-13T09:50:33.600Z,100323.50
2023-12-13T09:53:01.517Z,100324.41
2023-12-13T09:55:29.027Z,100338.88
2023-12-13T09:57:56.370Z,100332.91
2023-12-13T10:00:23.700Z,100334.25
2023-12-13T10:02:50.965Z,100330.88
2023-12-13T10:05:18.984Z,100327.47
2023-12-13T10:07:46.921Z,100312.97
2023-12-13T10:10:14.218Z,100320.69
2023-12-13T10:12:41.991Z,100319.09
2023-12-13T10:15:13.546Z,100317.34
2023-12-13T10:20:26.251Z,100329.97
2023-12-13T10:22:54.311Z,100334.66
2023-12-13T10:25:22.856Z,100324.81
2023-12-13T10:27:52.123Z,100330.59
2023-12-13T10:30:20.104Z,100334.47
2023-12-13T10:32:47.397Z,100335.88
2023-12-13T10:35:14.784Z,100335.09
2023-12-13T10:37:42.288Z,100341.00
2023-12-13T10:40:12.448Z,100332.03
2023-12-13T10:42:40.032Z,100332.03
2023-12-13T10:45:11.118Z,100336.63
2023-12-13T10:47:43.843Z,100326.53
2023-12-13T10:50:12.298Z,100348.94
2023-12-13T10:52:59.374Z,100335.44
2023-12-13T10:55:27.002Z,100335.47
2023-12-13T10:57:54.620Z,100327.47
2023-12-13T11:00:24.572Z,100334.00
2023-12-13T11:02:54.625Z,100328.72
2023-12-13T11:05:22.439Z,100333.41
2023-12-13T11:07:50.041Z,100346.78
2023-12-13T11:10:17.565Z,100328.34
2023-12-13T11:12:52.246Z,100334.47
2023-12-13T11:15:20.294Z,100337.19
2023-12-13T11:17:50.566Z,100338.16
2023-12-13T11:20:19.678Z,100347.75
2023-12-13T11:22:51.570Z,100332.69
2023-12-13T11:25:20.344Z,100337.06
2023-12-13T11:27:54.917Z,100327.66
2023-12-13T11:30:22.788Z,100329.09
2023-12-13T11:35:35.773Z,100331.53
2023-12-13T11:38:04.884Z,100336.44
2023-12-13T11:40:37.215Z,100336.25
2023-12-13T11:43:04.811Z,100346.28
2023-12-13T11:45:32.322Z,100352.44
2023-12-13T11:48:01.844Z,100343.59
2023-12-13T11:50:29.295Z,100348.50
2023-12-13T11:52:56.715Z,100348.56
2023-12-13T11:55:24.913Z,100331.94
2023-12-13T11:57:52.884Z,100341.16
2023-12-13T12:00:39.007Z,100364.00
2023-12-13T12:03:06.435Z,100355.97
2023-12-13T12:05:33.850Z,100349.69
2023-12-13T12:08:07.072Z,100349.34
2023-12-13T12:10:34.885Z,100346.16
2023-12-13T12:13:03.000Z,100360.41
2023-12-13T12:15:32.305Z,100393.47
2023-12-13T12:18:01.155Z,100355.16
2023-12-13T12:20:28.999Z,100357.09
2023-12-13T12:22:59.619Z,100357.16
2023-12-13T12:25:29.102Z,100359.91
2023-12-13T12:27:56.744Z,100355.97
2023-12-13T12:30:24.646Z,100363.00
2023-12-13T12:32:54.128Z,100366.69
2023-12-13T12:35:21.472Z,100370.91
2023-12-13T12:37:48.802Z,100362.63
2023-12-13T12:40:16.765Z,100370.41
2023-12-13T12:42:46.677Z,100379.59
2023-12-13T12:45:14.115Z,100371.97
2023-12-13T12:47:41.616Z,100367.34
2023-12-13T12:50:09.202Z,100374.50
2023-12-13T12:52:36.506Z,100374.50
2023-12-13T12:55:05.360Z,100372.03
2023-12-13T12:57:32.897Z,100387.94
2023-12-13T13:00:00.411Z,100380.56
2023-12-13T13:02:28.986Z,100395.94
2023-12-13T13:04:56.370Z,100385.34
2023-12-13T13:07:23.690Z,100390.31
2023-12-13T13:09:50.993Z,100386.75
2023-12-13T13:12:18.790Z,100394.41
2023-12-13T13:14:46.029Z,100393.28
2023-12-13T13:17:13.370Z,100399.97
2023-12-13T13:19:40.734Z,100391.50
2023-12-13T13:22:11.739Z,100394.09
2023-12-13T13:24:47.399Z,100383.16
2023-12-13T13:27:21.786Z,100386.94
2023-12-13T13:29:52.907Z,100391.44
2023-12-13T13:32:39.258Z,100382.84
2023-12-13T13:35:07.082Z,100379.13
2023-12-13T13:37:36.880Z,100386.88
2023-12-13T13:40:05.239Z,100381.91
2023-12-13T13:45:17.485Z,100368.41
2023-12-13T13:48:03.415Z,100376.03
2023-12-13T13:50:30.794Z,100388.78
2023-12-13T13:52:58.104Z,100384.63
2023-12-13T13:58:09.999Z,100394.75
2023-12-13T14:00:37.270Z,100395.75
2023-12-13T14:03:04.924Z,100385.09
2023-12-13T14:05:36.332Z,100388.13
2023-12-13T14:08:04.203Z,100392.63
2023-12-13T14:10:31.786Z,100388.28
2023-12-13T14:12:59.074Z,100392.16
2023-12-13T14:15:26.693Z,100394.59
2023-12-13T14:17:54.451Z,100391.66
2023-12-13T14:20:22.115Z,100411.97
2023-12-13T14:22:49.642Z,100401.75
2023-12-13T14:25:16.974Z,100407.25
2023-12-13T14:27:45.565Z,100399.38
2023-12-13T14:30:13.058Z,100422.56
2023-12-13T14:32:40.434Z,100405.38
2023-12-13T14:35:08.476Z,100401.09
2023-12-13T14:37:40.268Z,100418.97
2023-12-13T14:40:08.115Z,100400.47
2023-12-13T14:42:35.389Z,100400.72
2023-12-13T14:45:02.723Z,100421.75
2023-12-13T14:47:31.044Z,100396.34
2023-12-13T14:49:58.525Z,100399.13
2023-12-13T14:52:25.970Z,100404.63
2023-12-13T14:54:53.307Z,100395.63
2023-12-13T14:57:20.675Z,100398.38
2023-12-13T14:59:47.959Z,100407.78
2023-12-13T15:02:15.292Z,100409.72
2023-12-13T15:04:42.764Z,100417.16
2023-12-13T15:07:10.059Z,100409.69
2023-12-13T15:09:37.528Z,100413.66
2023-12-13T15:12:04.867Z,100406.53
2023-12-13T15:14:32.248Z,100422.19
2023-12-13T15:17:00.054Z,100407.28
2023-12-13T15:19:27.455Z,100429.69
2023-12-13T15:21:54.802Z,100416.13
2023-12-13T15:24:22.095Z,100423.91
2023-12-13T15:27:08.266Z,100419.28
2023-12-13T15:29:35.615Z,100416.56
2023-12-13T15:32:08.950Z,100409.00
2023-12-13T15:37:21.787Z,100396.91
2023-12-13T15:40:08.851Z,100394.66
2023-12-13T15:42:36.154Z,100401.78
2023-12-13T15:45:03.620Z,100411.13
2023-12-13T15:47:32.282Z,100403.88
2023-12-13T15:50:00.804Z,100400.41
2023-12-13T15:52:28.141Z,100406.69
2023-12-13T15:54:57.326Z,100403.59
2023-12-13T15:57:25.498Z,100413.69
2023-12-13T15:59:52.767Z,100410.75
2023-12-13T16:02:21.061Z,100411.97
2023-12-13T16:05:12.303Z,100429.53
2023-12-13T16:07:41.946Z,100426.06
2023-12-13T16:10:09.703Z,100430.22
2023-12-13T16:12:56.189Z,100434.19
2023-12-13T16:15:26.810Z,100436.84
2023-12-13T16:17:54.228Z,100429.06
2023-12-13T16:20:22.556Z,100422.19
2023-12-13T16:22:50.074Z,100428.44
2023-12-13T16:25:17.604Z,100435.97
2023-12-13T16:27:47.551Z,100431.69
2023-12-13T16:30:16.233Z,100436.28
2023-12-13T16:32:43.852Z,100432.03
2023-12-13T16:35:11.286Z,100423.22
2023-12-13T16:37:38.877Z,100425.22
2023-12-13T16:42:52.810Z,100432.06
2023-12-13T16:45:38.693Z,100432.50
2023-12-13T16:48:06.412Z,100434.19
2023-12-13T16:50:52.306Z,100432.06
2023-12-13T16:53:20.394Z,100432.69
2023-12-13T16:55:49.012Z,100444.75
2023-12-13T16:58:16.362Z,100454.47
2023-12-13T17:00:49.595Z,100451.50
2023-12-13T17:03:17.286Z,100439.22
2023-12-13T17:05:44.798Z,100436.84
2023-12-13T17:08:13.306Z,100437.22
2023-12-13T17:10:40.824Z,100437.78
2023-12-13T17:13:08.321Z,100428.97
2023-12-13T17:15:36.006Z,100422.56
2023-12-13T17:18:04.240Z,100434.25
2023-12-13T17:20:31.729Z,100442.34
2023-12-13T17:22:59.085Z,100428.81
2023-12-13T17:25:26.807Z,100433.84
2023-12-13T17:27:54.204Z,100433.28
2023-12-13T17:30:21.663Z,100417.28
2023-12-13T17:32:51.660Z,100437.78
2023-12-13T17:35:22.257Z,100425.44
2023-12-13T17:37:49.833Z,100430.03
2023-12-13T17:40:17.595Z,100421.44
2023-12-13T17:43:04.323Z,100423.66
2023-12-13T17:45:31.632Z,100429.78
2023-12-13T17:47:58.993Z,100425.94
2023-12-13T17:50:29.255Z,100427.63
2023-12-13T17:52:57.231Z,100419.97
2023-12-13T17:55:25.024Z,100416.63
2023-12-13T17:57:52.401Z,100430.81
2023-12-13T18:00:19.796Z,100440.13
2023-12-13T18:02:48.754Z,100429.59
2023-12-13T18:05:16.154Z,100422.94
2023-12-13T18:07:44.706Z,100425.25
2023-12-13T18:10:12.128Z,100423.97
2023-12-13T18:12:40.153Z,100427.72
2023-12-13T18:15:07.962Z,100438.91
2023-12-13T18:17:35.374Z,100439.22
2023-12-13T18:20:03.623Z,100452.22
2023-12-13T18:22:31.380Z,100444.13
2023-12-13T18:24:59.944Z,100436.97
2023-12-13T18:27:27.415Z,100437.31
2023-12-13T18:29:54.825Z,100438.81
2023-12-13T18:32:22.398Z,100444.69
2023-12-13T18:34:50.245Z,100459.84
2023-12-13T18:37:17.795Z,100446.91
2023-12-13T18:39:45.470Z,100448.81
2023-12-13T18:42:13.187Z,100443.56
2023-12-13T18:44:40.509Z,100437.50
2023-12-13T18:47:07.953Z,100463.75
2023-12-13T18:49:35.846Z,100456.41
2023-12-13T18:52:21.934Z,100452.47
2023-12-13T18:54:49.532Z,100460.28
2023-12-13T18:57:17.104Z,100443.97
2023-12-13T19:00:21.643Z,100438.75
2023-12-13T19:02:48.921Z,100441.72
2023-12-13T19:05:16.704Z,100438.25
2023-12-13T19:07:44.698Z,100436.75
2023-12-13T19:10:12.179Z,100422.56
2023-12-13T19:12:39.580Z,100429.22
2023-12-13T19:15:07.480Z,100433.91
2023-12-13T19:17:36.380Z,100424.63
2023-12-13T19:20:05.305Z,100425.91
2023-12-13T19:22:32.953Z,100420.09
2023-12-13T19:25:18.799Z,100424.88
2023-12-13T19:27:46.173Z,100420.47
2023-12-13T19:30:13.998Z,100418.78
2023-12-13T19:32:41.457Z,100417.78
2023-12-13T19:35:08.934Z,100417.19
2023-12-13T19:37:39.798Z,100421.19
2023-12-13T19:40:27.568Z,100421.16
2023-12-13T19:43:13.588Z,100424.88
2023-12-13T19:45:59.130Z,100418.16
2023-12-13T19:48:26.598Z,100426.09
2023-12-13T19:50:54.040Z,100416.22
2023-12-13T19:53:21.385Z,100421.44
2023-12-13T19:55:48.810Z,100417.31
2023-12-13T19:58:16.367Z,100412.97
2023-12-13T20:00:43.609Z,100410.72
2023-12-13T20:05:55.758Z,100411.75
2023-12-13T20:08:23.213Z,100409.97
2023-12-13T20:10:50.625Z,100411.97
2023-12-13T20:13:17.861Z,100418.13
2023-12-13T20:15:45.142Z,100422.38
2023-12-13T20:18:12.556Z,100422.25
2023-12-13T20:20:39.866Z,100421.28
2023-12-13T20:23:07.234Z,100422.06
2023-12-13T20:25:34.618Z,100422.31
2023-12-13T20:28:02.096Z,100429.69
2023-12-13T20:30:29.938Z,100432.06
2023-12-13T20:32:57.458Z,100437.03
2023-12-13T20:35:25.014Z,100435.91
2023-12-13T20:37:52.524Z,100439.97
2023-12-13T20:40:19.838Z,100438.53
2023-12-13T20:42:47.444Z,100448.13
2023-12-13T20:45:33.442Z,100448.31
2023-12-13T20:48:00.833Z,100442.94
2023-12-13T20:50:28.236Z,100437.97
2023-12-13T20:52:55.574Z,100441.53
2023-12-13T20:55:23.104Z,100447.19
2023-12-13T20:57:50.373Z,100451.31
2023-12-13T21:00:36.283Z,100442.47
2023-12-13T21:03:04.503Z,100428.97
2023-12-13T21:05:31.895Z,100434.50
2023-12-13T21:07:59.488Z,100446.44
2023-12-13T21:10:26.910Z,100458.22
2023-12-13T21:12:55.261Z,100448.97
2023-12-13T21:15:22.871Z,100450.75
2023-12-13T21:17:50.524Z,100452.25
2023-12-13T21:20:18.868Z,100454.66
2023-12-13T21:22:46.405Z,100446.94
2023-12-13T21:25:13.740Z,100461.50
2023-12-13T21:27:41.128Z,100452.53
2023-12-13T21:30:08.673Z,100458.97
2023-12-13T21:32:36.377Z,100452.81
2023-12-13T21:35:04.611Z,100448.75
2023-12-13T21:37:32.020Z,100467.56
2023-12-13T21:39:59.463Z,100459.03
2023-12-13T21:42:26.833Z,100462.78
2023-12-13T21:44:54.091Z,100453.81
2023-12-13T21:47:22.583Z,100452.41
2023-12-13T21:49:49.966Z,100454.34
2023-12-13T21:52:19.486Z,100451.84
2023-12-13T21:54:47.264Z,100447.56
2023-12-13T21:57:14.625Z,100445.16
2023-12-13T21:59:42.006Z,100447.72
2023-12-13T22:02:09.475Z,100446.19
2023-12-13T22:04:37.104Z,100460.09
2023-12-13T22:07:04.467Z,100450.13
2023-12-13T22:09:31.860Z,100450.69
2023-12-13T22:11:59.212Z,100448.22
2023-12-13T22:14:26.671Z,100440.53
2023-12-13T22:16:54.463Z,100442.66
2023-12-13T22:19:38.418Z,100447.56
2023-12-13T22:22:06.637Z,100442.03
2023-12-13T22:24:33.947Z,100445.97
2023-12-13T22:27:04.502Z,100449.56
2023-12-13T22:29:31.974Z,100447.63
2023-12-13T22:31:59.325Z,100447.97
2023-12-13T22:34:26.797Z,100450.47
2023-12-13T22:36:54.499Z,100444.00
2023-12-13T22:39:41.146Z,100445.78
2023-12-13T22:42:08.922Z,100444.31
2023-12-13T22:44:38.564Z,100458.66
2023-12-13T22:47:05.975Z,100441.22
2023-12-13T22:49:36.826Z,100442.53
2023-12-13T22:52:25.092Z,100435.78
2023-12-13T22:54:52.496Z,100447.94
2023-12-13T22:57:19.723Z,100448.91
2023-12-13T22:59:46.972Z,100445.59
2023-12-13T23:02:14.238Z,100440.44
2023-12-13T23:05:00.006Z,100447.91
2023-12-13T23:07:28.985Z,100450.63
2023-12-13T23:09:56.408Z,100442.22
2023-12-13T23:12:23.707Z,100463.84
2023-12-13T23:14:51.146Z,100445.03
2023-12-13T23:17:18.469Z,100452.19
2023-12-13T23:19:45.813Z,100454.03
2023-12-13T23:22:13.158Z,100464.97
2023-12-13T23:24:58.893Z,100468.34
2023-12-13T23:27:26.142Z,100463.28
2023-12-13T23:29:53.386Z,100457.69
2023-12-13T23:32:20.623Z,100473.34
2023-12-13T23:34:48.557Z,100471.00
2023-12-13T23:37:15.974Z,100467.09
2023-12-13T23:39:43.261Z,100468.25
2023-12-13T23:42:10.498Z,100471.66
2023-12-13T23:47:41.210Z,100489.63
2023-12-13T23:50:08.811Z,100490.84
2023-12-13T23:52:36.353Z,100483.19
2023-12-13T23:55:03.936Z,100477.72
2023-12-13T23:57:31.229Z,100485.34
2023-12-13T23:59:58.490Z,100488.16
